Site:       
  Group:  
  From:      To:        
   
Sensor Name: Furnace      Latitude:-9.57320000 , Longitude:53.92290000
Please click on the Table Headers to view a Graph of the Observations.
TimeMax. Temp. (°C)Min. Temp. (°C)Mean Temp. (°C)Tot. Rain (mm)Mean Wind (kn)Max Gust (kn)Solar Rad. (J\cm2)Humidity (%)Atmos. Press. (mb)Temp. 5cm (°C)Temp. 10cm (°C)Temp. 20cm (°C)Temp. 30cm (°C)Temp. 50cm (°C)Temp. 100cm (°C)Grass Min. (°C)
18/06/2018 23:00:0010.00 9.10 9.50 0.00 7.10 10.80 0.00 81.50 1017.00 -999.00 -999.00 15.70 15.50 15.10 14.60 -999.00
18/06/2018 22:00:0011.10 10.00 10.50 0.00 8.10 15.90 0.30 78.10 1016.70 -999.00 -999.00 15.90 15.50 15.10 14.60 -999.00
18/06/2018 21:00:0011.80 11.10 11.50 0.00 8.30 14.80 9.50 75.90 1015.80 -999.00 -999.00 15.90 15.50 15.10 14.60 -999.00
18/06/2018 20:00:0013.50 11.80 12.60 0.00 9.70 18.00 48.90 71.30 1015.10 -999.00 -999.00 16.00 15.50 15.10 14.60 -999.00
18/06/2018 19:00:0013.80 12.90 13.40 0.00 11.20 18.80 73.70 72.40 1014.40 -999.00 -999.00 15.90 15.40 15.10 14.60 -999.00
18/06/2018 18:00:0014.90 13.70 14.30 0.00 13.50 23.20 110.50 68.80 1013.80 -999.00 -999.00 15.70 15.30 15.10 14.60 -999.00
18/06/2018 17:00:0015.90 14.10 15.00 0.00 15.50 25.70 180.80 64.30 1013.40 -999.00 -999.00 15.50 15.30 15.10 14.60 -999.00
18/06/2018 16:00:0016.40 14.80 15.60 0.00 13.60 23.50 202.30 69.10 1012.80 -999.00 -999.00 15.30 15.20 15.10 14.60 -999.00
18/06/2018 15:00:0014.80 12.50 13.60 0.00 11.10 19.60 125.10 80.70 1012.60 -999.00 -999.00 15.20 15.10 15.00 14.60 -999.00
18/06/2018 14:00:0012.90 12.00 12.50 0.00 10.00 16.60 45.70 92.40 1012.60 -999.00 -999.00 15.00 14.90 15.00 14.60 -999.00
18/06/2018 13:00:0013.70 12.90 13.30 0.20 9.90 19.60 77.80 87.60 1012.00 -999.00 -999.00 14.70 14.80 15.10 14.60 -999.00
18/06/2018 12:00:0015.80 13.60 14.70 0.00 12.00 24.30 146.30 85.40 1011.70 -999.00 -999.00 14.40 14.80 15.10 14.60 -999.00
18/06/2018 11:00:0016.30 14.00 15.10 0.00 13.00 23.00 196.50 81.50 1011.60 -999.00 -999.00 14.30 14.70 15.10 14.60 -999.00
18/06/2018 10:00:0014.30 13.10 13.70 0.00 9.80 20.50 69.30 83.40 1011.50 -999.00 -999.00 14.10 14.70 15.10 14.60 -999.00
18/06/2018 09:00:0013.80 13.10 13.50 0.00 11.00 18.80 90.90 85.60 1011.60 -999.00 -999.00 14.10 14.70 15.20 14.60 -999.00
18/06/2018 08:00:0013.50 12.20 12.90 0.00 9.80 17.30 75.70 88.00 1011.60 -999.00 -999.00 14.10 14.80 15.20 14.60 -999.00
18/06/2018 07:00:0012.50 12.20 12.30 0.00 10.10 17.80 26.90 88.50 1011.40 -999.00 -999.00 14.10 14.80 15.20 14.70 -999.00
18/06/2018 06:00:0012.20 11.90 12.00 0.00 8.40 14.90 9.60 87.80 1011.10 -999.00 -999.00 14.20 14.90 15.20 14.70 -999.00
18/06/2018 05:00:0011.90 11.60 11.80 0.00 9.20 18.30 1.70 87.60 1011.30 -999.00 -999.00 14.30 15.00 15.30 14.70 -999.00
18/06/2018 04:00:0011.70 11.60 11.60 0.00 9.30 17.80 0.00 86.20 1011.20 -999.00 -999.00 14.40 15.00 15.30 14.70 -999.00
18/06/2018 03:00:0011.80 11.60 11.70 0.00 9.30 19.00 0.00 88.50 1011.20 -999.00 -999.00 14.50 15.10 15.30 14.70 -999.00
18/06/2018 02:00:0011.80 11.50 11.60 0.00 9.60 18.70 0.00 86.70 1011.20 -999.00 -999.00 14.70 15.20 15.30 14.70 -999.00
18/06/2018 01:00:0011.60 11.30 11.40 0.00 6.70 18.40 0.00 88.20 1011.10 -999.00 -999.00 14.80 15.20 15.30 14.70 -999.00
18/06/2018 00:00:0011.50 11.20 11.30 0.00 4.70 13.50 0.00 85.00 1011.00 -999.00 14.00 14.90 15.30 15.30 14.70 10.40
17/06/2018 23:00:0011.20 11.00 11.10 0.00 4.10 15.30 0.00 84.30 1011.10 14.20 14.20 15.00 15.30 15.30 14.70 10.30
17/06/2018 22:00:0011.30 11.10 11.20 0.00 8.50 21.80 0.10 89.60 1010.60 14.50 14.40 15.10 15.40 15.30 14.70 10.50